Madrid, España

11:46 PM CEST en Abril 25, 2015 (GMT +0200)
San Blas | | Change Station
CLOSE
Current Station
Estación meteorológica personal
Location: Madrid, COMUNIDAD DE MADRID
Altura: 2244 ft
Estaciones meteorológicas cercanas

Alt 2244 ft 40.43 °N, 3.63 °W | Updated 1 minute ago

Scattered Clouds
Nubes dispersas
56.1 ° F
Sensación térmica 56.1 ° F
N
1.0
Viento Variable Viento desde SO
Gusts 6.0 mph

Hoy
Alta -- | Baja -- ° F
--% Posibilidad de precipitaciones
Ayer
Alta -- | Baja -- ° F
Precip. -- pul
7:21 AM 9:03 PM
Creciente, 49% visible
Presión 29.95 pul
Visibilidad 6.2 Millas
Nubes Baja 4000 ft
Nubes dispersas 7000 ft
Punto de rocío 49 ° F
Humedad 76%
Precipitaciones 0.00 pul
Espesor de la nieve No disponible.
UV 0 de una escala de 12
Polen No disponible.
Calidad del aire No disponible.
Flu Activity No disponible.
METAR LEMD 252130Z 18007KT 9999 FEW040 SCT070 14/09 Q1014 NOSIG

More Conditions Fewer Conditions

Presión 29.95 pul
Visibilidad 6.2 Millas
Nubes Baja 4000 ft
Nubes dispersas 7000 ft
Punto de rocío 49 ° F
Humedad 76%
Precipitaciones 0.00 pul
Espesor de la nieve No disponible.
UV 0 de una escala de 12
Polen No disponible.
Calidad del aire No disponible.
Flu Activity No disponible.
METAR LEMD 252130Z 18007KT 9999 FEW040 SCT070 14/09 Q1014 NOSIG

More Conditions Fewer Conditions

10-Day Weather Forecast

Almanac

Astronomía

Apr. 25, 2015 Salida Puesta
Hora real
Crepúsculo civil
Crepúsculo náutico
Crepúsculo astronómico
Luna
Horas de luz
Horas de luz
Tomorrow will be .
, % of the Moon is Illuminated

Extremos de hoy

Máximos del país Bajas del país

Community

WunderPhotos

Upload Photos

1,816,820 ¡fotos cargadas!

WunderBlogs® & News

Nearby

Calidad del aire

  Calidad del aire Índice AQ Contaminante
Not available.

Grosos de nieve

Estación Profundido Altura

Actividad de terremotos

Ciudad Distance Mag. Tiempo y dato
Magnitud mínima muestra es 2,5.

Temperaturas de aguas costeras

Lugar Temperatura

Stations

Estaciones meteorológicas cercanas

Ubicación de la estación Temp. Vientos helados Punto de rocío Humedad Viento Precip. Alt Actualizado Tipo